Latest Weather Observations for South Johnstone

IDQ60801

Issued at 7:05 pm EST Saturday 25 October 2014 (issued every 30 minutes, with the page automatically refreshed every 10 minutes)

About weather observations | Map of weather stations | Latest weather observations for QLD | Other Formats
Station Details ID: 032037 Name: SOUTH JOHNSTONE EXP STN Lat: -17.61 Lon: 146.00 Height: 18.3 m
Data from the previous 72 hours. | See also: Recent months at South Johnstone
Date/Time
EST
Temp
°C
App
Temp
°C
Dew
Point
Rel
Hum
%
Delta-T
°C
Wind Press
QNH
hPa
Press
MSL
hPa
Rain
since 9 am
mm
Dir
 
Spd
km/h
Gust
km/h
Spd
kts
Gust
kts
25/07:00pm 21.7 22.3 15.7 68 3.6 SSE 7 9 4 5 1017.7 - 0.0
25/06:30pm 22.4 22.4 15.2 63 4.3 SE 9 11 5 6 1017.4 - 0.0
25/06:00pm 24.2 23.1 14.2 53 5.9 ESE 13 17 7 9 1017.2 1017.1 0.0
25/05:30pm 25.2 23.7 14.2 50 6.5 ESE 15 20 8 11 1016.9 - 0.0
25/05:00pm 26.1 24.0 13.7 46 7.3 SE 17 24 9 13 1016.5 - 0.0
25/04:30pm 26.9 25.5 13.5 43 7.9 ESE 13 20 7 11 1016.2 - 0.0
25/04:00pm 27.2 25.5 13.7 43 8.0 SE 15 24 8 13 1016.0 - 0.0
25/03:30pm 27.5 25.6 13.0 40 8.5 ESE 15 24 8 13 1016.2 - 0.0
25/03:00pm 27.5 25.3 12.1 38 8.9 SSE 15 24 8 13 1016.3 1016.2 0.0
25/02:30pm 28.4 27.4 13.4 39 8.9 ESE 11 22 6 12 1016.5 - 0.0
25/02:00pm 27.6 25.3 13.1 40 8.5 SSE 17 24 9 13 1016.8 - 0.0
25/01:30pm 27.9 25.7 12.2 37 9.1 ESE 15 24 8 13 1017.1 - 0.0
25/01:00pm 27.9 25.4 12.4 38 9.0 ESE 17 28 9 15 1017.5 - 0.0
25/12:30pm 28.3 26.5 13.4 40 8.8 ESE 15 26 8 14 1017.8 - 0.0
25/12:00pm 27.5 25.3 13.2 41 8.4 S 17 30 9 16 1018.3 1018.2 0.0
25/11:30am 27.5 25.9 14.9 46 7.6 SE 17 24 9 13 1018.9 - 0.0
25/11:00am 26.1 25.2 14.9 50 6.7 E 13 22 7 12 1019.1 - 0.0
25/10:30am 27.6 26.7 14.8 45 7.7 ESE 13 24 7 13 1019.3 - 0.0
25/10:00am 27.1 25.0 13.7 43 7.9 E 17 24 9 13 1019.6 - 0.0
25/09:30am 26.8 25.0 13.3 43 7.9 ESE 15 24 8 13 1020.0 - 0.0
25/09:00am 25.7 23.2 13.6 47 7.1 ESE 19 32 10 17 1020.0 1019.9 0.2
25/08:30am 25.3 23.1 14.5 51 6.4 SE 19 28 10 15 1020.0 - 0.2
25/08:00am 25.1 23.2 15.1 53 6.0 SE 19 28 10 15 1019.7 - 0.2
25/07:30am 22.3 25.2 18.1 77 2.6 CALM 0 0 0 0 1019.3 - 0.2
25/07:00am 19.6 21.4 17.3 86 1.4 NW 4 7 2 4 1019.0 - 0.2
25/06:30am 18.2 18.8 16.7 91 0.9 WSW 9 13 5 7 1018.7 - 0.2
25/06:00am 18.4 20.8 17.1 92 0.8 W 0 0 0 0 1018.5 1018.4 0.2
25/05:30am 18.6 19.8 16.9 90 1.0 W 6 9 3 5 1018.2 - 0.2
25/05:00am 19.0 20.3 17.2 89 1.1 WNW 6 9 3 5 1018.0 - 0.2
25/04:30am 19.2 21.6 17.1 88 1.3 CALM 0 0 0 0 1017.9 - 0.2
25/04:00am 19.7 21.0 17.2 85 1.5 WNW 6 9 3 5 1017.8 - 0.2
25/03:30am 21.2 22.8 16.9 76 2.6 S 4 11 2 6 1017.6 - 0.2
25/03:00am 21.8 22.0 15.8 68 3.6 S 9 15 5 8 1017.7 1017.6 0.2
25/02:30am 21.8 22.3 16.5 72 3.2 S 9 15 5 8 1017.7 - 0.2
25/02:00am 22.3 22.6 16.9 71 3.3 SSE 11 17 6 9 1017.9 - 0.2
25/01:30am 22.1 22.5 17.2 74 3.0 S 11 17 6 9 1018.2 - 0.2
25/01:00am 20.9 22.2 17.6 81 2.0 S 7 11 4 6 1018.5 - 0.2
25/12:30am 19.1 21.7 17.6 91 0.9 CALM 0 6 0 3 1018.8 - 0.2
25/12:00am 19.3 20.7 17.7 90 1.0 W 7 11 4 6 1019.2 1019.1 0.2
 
Date/Time
EST
Temp
°C
App
Temp
°C
Dew
Point
Rel
Hum
%
Delta-T
°C
Wind Press
QNH
hPa
Press
MSL
hPa
Rain
since 9 am
mm
Dir
 
Spd
km/h
Gust
km/h
Spd
kts
Gust
kts
24/11:30pm 19.4 22.0 17.6 89 1.1 CALM 0 0 0 0 1019.6 - 0.2
24/11:00pm 20.0 22.9 18.2 89 1.1 CALM 0 0 0 0 1019.8 - 0.2
24/10:30pm 21.6 23.1 17.5 77 2.5 S 6 11 3 6 1019.9 - 0.2
24/10:00pm 22.0 23.9 17.6 76 2.7 S 4 11 2 6 1019.9 - 0.2
24/09:30pm 21.8 24.5 17.8 78 2.5 CALM 0 11 0 6 1019.8 - 0.2
24/09:00pm 21.6 24.3 17.7 78 2.4 CALM 0 0 0 0 1019.4 1019.3 0.2
24/08:30pm 22.0 23.5 17.6 76 2.7 S 6 9 3 5 1019.2 - 0.2
24/08:00pm 22.4 24.2 17.5 74 3.0 S 4 11 2 6 1018.7 - 0.2
24/07:30pm 22.4 23.7 17.5 74 3.0 S 7 11 4 6 1018.4 - 0.2
24/07:00pm 22.8 24.1 17.5 72 3.3 S 7 13 4 7 1018.3 - 0.2
24/06:30pm 22.9 24.1 17.4 71 3.4 S 7 13 4 7 1018.2 - 0.2
24/06:00pm 23.7 23.2 16.9 65 4.2 SSE 15 20 8 11 1017.8 1017.7 0.2
24/05:30pm 24.5 23.1 16.5 61 4.9 SE 19 26 10 14 1017.4 - 0.2
24/05:00pm 25.3 24.2 16.3 57 5.5 SE 17 24 9 13 1017.1 - 0.2
24/04:30pm 25.8 24.4 16.5 56 5.7 SE 19 28 10 15 1016.9 - 0.2
24/04:00pm 25.7 24.2 16.2 55 5.8 ESE 19 32 10 17 1016.8 - 0.2
24/03:30pm 26.7 25.4 16.9 55 6.1 SE 19 30 10 16 1016.8 - 0.2
24/03:00pm 26.5 25.1 17.0 56 5.9 SE 20 32 11 17 1016.9 1016.8 0.2
24/02:30pm 27.4 26.1 16.8 52 6.6 SSE 19 32 10 17 1016.9 - 0.2
24/02:00pm 25.9 24.4 16.7 57 5.7 ESE 20 32 11 17 1017.2 - 0.2
24/01:30pm 27.5 26.2 16.7 51 6.7 ESE 19 32 10 17 1017.5 - 0.2
24/01:00pm 27.7 26.1 16.4 50 7.0 SE 20 32 11 17 1017.8 - 0.2
24/12:30pm 28.0 26.9 17.3 52 6.7 ESE 19 32 10 17 1018.2 - 0.2
24/12:00pm 26.9 25.5 16.5 53 6.4 SSE 19 28 10 15 1018.6 1018.5 0.2
24/11:30am 26.3 24.9 16.6 55 6.0 ESE 19 30 10 16 1019.0 - 0.2
24/11:00am 27.1 25.6 16.2 51 6.7 SE 19 26 10 14 1019.2 - 0.2
24/10:30am 27.0 26.0 16.5 52 6.5 SSE 17 28 9 15 1019.3 - 0.0
24/10:00am 26.7 24.6 14.7 47 7.2 ESE 19 30 10 16 1019.6 - 0.0
24/09:30am 26.5 25.4 16.4 53 6.2 ESE 17 28 9 15 1019.7 - 0.0
24/09:00am 25.5 24.8 16.4 57 5.6 SE 15 28 8 15 1019.7 1019.6 3.2
24/08:30am 24.3 24.1 17.5 66 4.2 SSE 15 22 8 12 1019.6 - 3.2
24/08:00am 23.8 25.2 18.6 72 3.3 SSE 9 15 5 8 1019.5 - 3.2
24/07:30am 23.4 25.1 18.6 74 3.0 S 7 13 4 7 1019.1 - 3.2
24/07:00am 20.2 23.6 19.4 95 0.5 CALM 0 6 0 3 1018.9 - 3.2
24/06:30am 20.1 23.1 19.3 95 0.5 SW 2 7 1 4 1018.6 - 3.2
24/06:00am 19.9 22.3 18.9 94 0.6 WSW 4 9 2 5 1018.4 1018.3 3.2
24/05:30am 19.5 22.3 18.9 96 0.4 W 2 9 1 5 1018.2 - 1.4
24/05:00am 19.8 22.3 19.0 95 0.5 W 4 7 2 4 1017.8 - 1.4
24/04:30am 19.7 21.7 18.7 94 0.6 W 6 9 3 5 1017.5 - 1.4
24/04:00am 20.2 23.5 19.1 93 0.7 CALM 0 0 0 0 1017.4 - 1.4
24/03:30am 21.2 22.9 18.6 85 1.6 S 7 9 4 5 1017.3 - 1.4
24/03:00am 21.0 22.8 18.3 84 1.7 SSW 6 9 3 5 1017.4 1017.3 1.4
24/02:30am 20.0 22.9 19.0 94 0.6 ENE 2 19 1 10 1017.5 - 1.4
24/02:00am 19.7 22.9 18.9 95 0.5 CALM 0 7 0 4 1017.7 - 1.0
24/01:30am 19.3 22.3 18.5 95 0.5 CALM 0 7 0 4 1018.2 - 1.0
24/01:00am 19.4 22.1 18.6 95 0.5 NNW 2 7 1 4 1018.7 - 1.0
24/12:30am 19.8 21.4 18.2 90 1.0 WSW 7 13 4 7 1018.9 - 0.4
24/12:00am 19.7 21.8 18.1 90 1.0 W 4 7 2 4 1019.3 1019.2 0.0
 
Date/Time
EST
Temp
°C
App
Temp
°C
Dew
Point
Rel
Hum
%
Delta-T
°C
Wind Press
QNH
hPa
Press
MSL
hPa
Rain
since 9 am
mm
Dir
 
Spd
km/h
Gust
km/h
Spd
kts
Gust
kts
23/11:30pm 19.8 21.5 18.0 89 1.1 W 6 9 3 5 1019.5 - 0.0
23/11:00pm 20.1 21.7 18.2 89 1.2 W 7 11 4 6 1019.6 - 0.0
23/10:30pm 20.1 23.0 18.3 89 1.1 CALM 0 4 0 2 1019.7 - 0.0
23/10:00pm 21.1 24.1 18.5 85 1.6 CALM 0 0 0 0 1019.7 - 0.0
23/09:30pm 21.7 23.4 18.0 79 2.3 SSE 6 7 3 4 1019.4 - 0.0
23/09:00pm 22.2 24.0 18.2 78 2.5 S 6 9 3 5 1019.1 1019.0 0.0
23/08:30pm 22.2 25.0 18.0 77 2.6 CALM 0 0 0 0 1018.9 - 0.0
23/08:00pm 22.3 25.1 18.0 76 2.7 CALM 0 6 0 3 1018.6 - 0.0
23/07:30pm 22.4 25.2 17.9 75 2.8 CALM 0 6 0 3 1018.4 - 0.0
23/07:00pm 23.1 25.1 17.8 72 3.3 S 4 11 2 6 1018.1 - 0.0
23/06:30pm 23.1 25.7 17.4 70 3.5 CALM 0 7 0 4 1017.7 - 0.0
23/06:00pm 24.2 23.8 17.1 64 4.4 SE 15 22 8 12 1017.4 1017.3 0.0
23/05:30pm 24.8 23.9 16.9 61 4.9 ESE 17 26 9 14 1017.1 - 0.0
23/05:00pm 25.5 24.2 16.8 58 5.4 SSE 19 26 10 14 1016.7 - 0.0
23/04:30pm 26.4 25.0 16.5 54 6.1 SE 19 32 10 17 1016.2 - 0.0
23/04:00pm 26.3 24.7 16.6 55 6.0 SE 20 26 11 14 1015.9 - 0.0
23/03:30pm 26.4 25.1 16.9 56 5.9 SE 19 30 10 16 1015.8 - 0.0
23/03:00pm 26.9 25.4 16.4 52 6.5 SE 19 28 10 15 1016.2 1016.1 0.0
23/02:30pm 25.9 24.6 17.2 58 5.4 SE 20 33 11 18 1016.3 - 0.0
23/02:00pm 27.2 26.3 17.7 56 6.0 SE 19 32 10 17 1016.5 - 0.0
23/01:30pm 27.0 25.6 16.9 54 6.3 SE 20 32 11 17 1016.8 - 0.0
23/01:00pm 26.2 23.8 16.3 54 6.1 ESE 24 33 13 18 1017.2 - 0.0
23/12:30pm 27.2 24.9 15.8 49 7.0 SE 22 35 12 19 1017.6 - 0.0
23/12:00pm 27.6 26.0 16.5 50 6.9 SE 20 33 11 18 1018.1 1018.0 0.0
23/11:30am 27.4 25.5 16.6 51 6.7 SSE 22 32 12 17 1018.4 - 0.0
23/11:00am 26.4 24.9 16.7 55 6.0 SSE 20 35 11 19 1018.8 - 0.0
23/10:30am 26.5 24.8 16.2 53 6.3 SE 20 32 11 17 1019.0 - 0.0
23/10:00am 26.8 25.7 16.4 53 6.4 SSE 17 26 9 14 1019.2 - 0.0
23/09:30am 26.6 24.6 15.6 50 6.7 SE 20 28 11 15 1019.4 - 0.0
23/09:00am 26.0 24.8 16.0 54 6.1 SSE 17 24 9 13 1019.5 1019.4 0.4
23/08:30am 25.7 24.0 15.8 54 6.0 SSE 19 28 10 15 1019.5 - 0.4
23/08:00am 23.8 23.3 16.0 61 4.7 S 13 24 7 13 1019.3 - 0.4
23/07:30am 23.8 23.4 16.2 62 4.6 S 13 19 7 10 1019.1 - 0.4
23/07:00am 20.2 22.5 17.6 85 1.6 SSW 2 6 1 3 1018.8 - 0.4
23/06:30am 18.5 20.5 17.0 91 0.9 NW 2 7 1 4 1018.3 - 0.4
23/06:00am 18.3 20.4 17.1 93 0.7 WNW 2 9 1 5 1018.0 1017.9 0.4
23/05:30am 18.7 20.0 17.0 90 1.0 S 6 15 3 8 1017.8 - 0.4
23/05:00am 18.5 19.8 17.2 92 0.8 W 6 13 3 7 1017.5 - 0.4
23/04:30am 18.6 20.0 17.4 93 0.7 W 6 11 3 6 1017.3 - 0.4
23/04:00am 18.5 19.8 17.2 92 0.8 W 6 11 3 6 1017.2 - 0.4
23/03:30am 18.7 20.2 17.6 93 0.7 NW 6 11 3 6 1017.3 - 0.4
23/03:00am 19.1 21.3 17.5 90 1.0 W 2 9 1 5 1017.6 1017.5 0.4
23/02:30am 19.3 22.0 17.8 91 0.9 CALM 0 6 0 3 1017.8 - 0.4
23/02:00am 20.1 22.1 17.8 86 1.4 SW 4 7 2 4 1018.2 - 0.4
23/01:30am 21.2 22.7 17.6 80 2.2 SSW 6 7 3 4 1018.5 - 0.4
23/01:00am 22.2 23.0 16.4 69 3.5 S 7 13 4 7 1019.0 - 0.4
23/12:30am 22.2 23.2 16.8 71 3.3 S 7 11 4 6 1019.3 - 0.4
23/12:00am 22.1 22.7 16.9 72 3.2 S 9 11 5 6 1019.7 1019.6 0.4
 
Date/Time
EST
Temp
°C
App
Temp
°C
Dew
Point
Rel
Hum
%
Delta-T
°C
Wind Press
QNH
hPa
Press
MSL
hPa
Rain
since 9 am
mm
Dir
 
Spd
km/h
Gust
km/h
Spd
kts
Gust
kts
22/11:30pm 22.2 23.1 17.5 74 2.9 S 9 13 5 7 1019.9 - 0.4
22/11:00pm 22.2 23.2 17.8 76 2.7 S 9 15 5 8 1020.1 - 0.4
22/10:30pm 22.3 23.8 18.0 76 2.7 S 7 11 4 6 1020.3 - 0.4
22/10:00pm 22.4 23.5 17.9 75 2.8 S 9 13 5 7 1020.2 - 0.4
22/09:30pm 22.5 23.9 17.8 75 2.9 S 7 11 4 6 1020.1 - 0.4
22/09:00pm 22.0 23.4 17.8 77 2.6 S 7 11 4 6 1019.7 1019.6 0.4
22/08:30pm 21.6 23.6 17.9 79 2.3 SSE 4 7 2 4 1019.5 - 0.4
22/08:00pm 22.5 24.1 17.8 75 2.9 S 6 11 3 6 1019.3 - 0.4
22/07:30pm 22.5 23.9 17.8 75 2.9 SSE 7 11 4 6 1019.0 - 0.4

Other Formats:

Comma delimited format used in spreadsheet applications
http://www.bom.gov.au/fwo/IDQ60801/IDQ60801.95292.axf

JavaScript Object Notation format (JSON) in row-major order
http://www.bom.gov.au/fwo/IDQ60801/IDQ60801.95292.json